• Join FlightAware (Why Join?)
  • Login
  • US Flag 
Trick or treat! (Boo!!) 
12:31PM EDT


 

Airport Tracker/Info


-or-


 

Live Flight TrackerFlight Track Log ✈ BJS339 ✈ 22-Dec-2013 ✈ KDEN - KLGB

Flight Track Log - Related Links

Times and Time Zones

All times are in EST time to prevent confusion due to time zone crossing. See the BJS339 flight status page for this flight to view local times or setup timezone preferences in your user account.

Time Position Orientation Groundspeed Altitude Reporting Facility
EST Latitude Longitude Course Direction KTS MPH feet Rate Location/Type
02:22PM 39.8167 -104.8167 249° West 245 282 7,900  Level Denver TRACON
02:23PM 39.8000 -104.9167 258° West 270 311 11,100 2,700 Climbing Denver TRACON
02:25PM 39.7667 -105.0333 250° West 314 361 13,900 2,460 Climbing Denver TRACON
02:26PM 39.7167 -105.1500 241° Southwest 353 406 16,600 2,400 Climbing Denver TRACON
02:27PM 39.6747 -105.2858 248° West 372 428 19,400 2,460 Climbing Denver Center
02:28PM 39.5649 -105.4880 249° West  Level Estimated
02:28PM 39.6253 -105.4214 245° Southwest 386 444 22,100  Level Denver Center
02:29PM 39.5806 -105.5447 245° Southwest 391 450 24,100 1,740 Climbing Denver Center
02:30PM 39.5350 -105.6825 247° West 418 481 25,800 1,500 Climbing Denver Center
02:31PM 39.4956 -105.8239 250° West 421 484 27,200 1,500 Climbing Denver Center
02:32PM 39.4492 -105.9983 251° West 429 494 29,000 1,380 Climbing Denver Center
02:33PM 39.4075 -106.1456 250° West 437 503 30,100 960 Climbing Denver Center
02:34PM 39.3658 -106.2939 250° West 439 505 31,000 960 Climbing Denver Center
02:35PM 39.3178 -106.4594 249° West 441 507 32,100 960 Climbing Denver Center
02:36PM 39.2764 -106.6028 250° West 443 510 33,100 900 Climbing Denver Center
02:37PM 39.2292 -106.7411 246° West 440 506 34,000 960 Climbing Denver Center
02:38PM 39.1400 -106.8825 231° Southwest 452 520 35,100 960 Climbing Denver Center
02:39PM 39.0583 -107.0056 230° Southwest 463 533 36,000 840 Climbing Denver Center
02:40PM 38.9683 -107.1444 230° Southwest 455 524 36,900 780 Climbing Denver Center
02:41PM 38.8917 -107.2633 230° Southwest 450 518 37,700 780 Climbing Denver Center
02:42PM 38.8047 -107.3992 231° Southwest 444 511 38,600 660 Climbing Denver Center
02:43PM 38.7294 -107.5144 230° Southwest 441 507 39,100 480 Climbing Denver Center
02:44PM 38.6403 -107.6500 230° Southwest 444 511 39,600 240 Climbing Denver Center
02:46PM 38.4764 -107.8994 228° Southwest 440 506 40,000 120 Climbing Denver Center
02:47PM 38.3986 -108.0153 229° Southwest 445 512 40,000  Level Denver Center
02:49PM 38.3061 -108.1564 230° Southwest 459 528 40,000  Level Denver Center
02:50PM 38.2253 -108.2753 229° Southwest 463 533 40,000  Level Denver Center
02:51PM 38.1467 -108.3978 231° Southwest 463 533 40,000  Level Denver Center
02:52PM 38.0708 -108.5500 238° Southwest 455 524 40,000  Level Denver Center
02:53PM 37.9964 -108.6908 236° Southwest 453 521 40,000  Level Denver Center
02:54PM 37.9286 -108.8231 237° Southwest 460 529 40,000  Level Denver Center
02:55PM 37.8497 -108.9792 237° Southwest 469 540 40,000  Level Denver Center
02:56PM 37.7819 -109.1094 237° Southwest 466 536 40,000  Level Denver Center
02:57PM 37.7033 -109.2614 237° Southwest 464 534 40,000  Level Denver Center
02:58PM 37.6356 -109.3922 237° Southwest 465 535 40,000  Level Denver Center
02:59PM 37.5564 -109.5436 237° Southwest 464 534 40,000  Level Denver Center
03:00PM 37.4881 -109.6728 236° Southwest 464 534 40,000  Level Denver Center
03:01PM 37.4089 -109.8231 236° Southwest 463 533 40,000  Level Denver Center
03:02PM 37.3397 -109.9519 236° Southwest 465 535 40,000  Level Denver Center
03:03PM 37.2597 -110.1028 236° Southwest 465 535 40,000  Level Denver Center
03:04PM 37.1958 -110.2200 236° Southwest 465 535 40,000  Level Denver Center
03:05PM 37.1089 -110.3817 236° Southwest 466 536 40,000  Level Denver Center
03:06PM 37.0364 -110.5169 236° Southwest 467 537 40,000  Level Denver Center
03:07PM 36.9636 -110.6500 236° Southwest 464 534 40,000  Level Denver Center
03:08PM 36.8914 -110.7822 236° Southwest 463 533 40,000  Level Denver Center
03:09PM 36.8222 -110.9081 236° Southwest 442 509 40,000  Level Denver Center
03:10PM 36.7561 -111.0325 236° Southwest 432 497 40,000  Level Denver Center
03:11PM 36.6717 -111.1861 236° Southwest 441 507 40,000  Level Denver Center
03:12PM 36.5992 -111.3153 235° Southwest 449 517 40,000  Level Denver Center
03:13PM 36.5289 -111.4414 235° Southwest 447 514 40,000  Level Denver Center
03:14PM 36.4592 -111.5678 236° Southwest 445 512 40,000  Level Denver Center
03:15PM 36.4000 -111.6694 234° Southwest 444 511 40,000  Level Los Angeles Center
03:16PM 36.3303 -111.7964 236° Southwest 445 512 40,000  Level Los Angeles Center
03:17PM 36.2436 -111.9489 235° Southwest 451 519 40,000  Level Los Angeles Center
03:18PM 36.1764 -112.0703 236° Southwest 458 527 40,000  Level Los Angeles Center
03:19PM 36.1028 -112.1981 235° Southwest 460 529 40,000  Level Los Angeles Center
03:20PM 36.0264 -112.3336 235° Southwest 449 517 40,000  Level Los Angeles Center
03:21PM 35.9539 -112.4597 235° Southwest 448 516 40,000  Level Los Angeles Center
03:22PM 35.8742 -112.6003 235° Southwest 453 521 40,000  Level Los Angeles Center
03:24PM 35.8039 -112.7233 235° Southwest 446 513 40,000  Level Los Angeles Center
03:25PM 35.7342 -112.8425 234° Southwest 438 504 40,000  Level Los Angeles Center
03:26PM 35.6594 -112.9703 234° Southwest 444 511 40,000  Level Los Angeles Center
03:27PM 35.5861 -113.0947 234° Southwest 448 516 40,000  Level Los Angeles Center
03:28PM 35.4986 -113.2439 234° Southwest 448 516 40,000  Level Los Angeles Center
03:29PM 35.4339 -113.3569 235° Southwest 450 518 40,000  Level Los Angeles Center
03:30PM 35.3611 -113.4786 234° Southwest 448 516 40,000  Level Los Angeles Center
03:31PM 35.2728 -113.6269 234° Southwest 452 520 40,000  Level Los Angeles Center
03:32PM 35.2008 -113.7494 234° Southwest 449 517 40,000  Level Los Angeles Center
03:33PM 35.1286 -113.8706 234° Southwest 444 511 40,000  Level Los Angeles Center
03:34PM 35.0456 -114.0111 234° Southwest 447 514 40,000  Level Los Angeles Center
03:35PM 34.9725 -114.1325 234° Southwest 443 510 40,000  Level Los Angeles Center
03:36PM 34.8992 -114.2533 234° Southwest 443 510 40,000  Level Los Angeles Center
03:37PM 34.8264 -114.3756 234° Southwest 444 511 40,000  Level Los Angeles Center
03:38PM 34.7553 -114.4958 234° Southwest 438 504 40,000  Level Los Angeles Center
03:39PM 34.6986 -114.6247 242° Southwest 432 497 40,000 -180 Level Los Angeles Center
03:40PM 34.6350 -114.7672 242° Southwest 433 498 39,700 -660 Descending Los Angeles Center
03:41PM 34.5753 -114.9000 241° Southwest 443 510 38,700 -1,140 Descending Los Angeles Center
03:42PM 34.5167 -115.0311 242° Southwest 444 511 37,400 -1,560 Descending Los Angeles Center
03:43PM 34.4447 -115.1869 241° Southwest 442 509 35,500 -1,800 Descending Los Angeles Center
03:44PM 34.3850 -115.3192 241° Southwest 445 512 33,700 -1,740 Descending Los Angeles Center
03:45PM 34.3258 -115.4492 241° Southwest 444 511 32,000 -1,680 Descending Los Angeles Center
03:46PM 34.2664 -115.5781 241° Southwest 441 507 30,300 -1,680 Descending Los Angeles Center
03:47PM 34.1925 -115.6947 233° Southwest 442 509 28,600 -1,680 Descending Los Angeles Center
03:48PM 34.1353 -115.8228 242° Southwest 434 499 26,900 -1,500 Descending Los Angeles Center
03:50PM 34.0378 -116.0969 243° Southwest 408 470 24,000 -960 Descending Los Angeles Center
03:51PM 34.0131 -116.2256 257° West 396 456 24,000 -600 Level Los Angeles Center
03:53PM 33.9875 -116.3578 257° West 404 465 22,800 -1,740 Descending Los Angeles Center
03:54PM 33.9619 -116.4875 257° West 401 461 20,500 -2,520 Descending Los Angeles Center
03:55PM 33.9325 -116.6372 257° West 388 447 17,700 -2,460 Descending Los Angeles Center
03:56PM 33.9081 -116.7622 257° West 387 445 15,500 -1,860 Descending Los Angeles Center
03:57PM 33.8792 -116.8864 254° West 387 445 13,900 -840 Descending Los Angeles Center
03:58PM 33.8614 -117.0117 260° West 385 443 13,800 -780 Descending Los Angeles Center
03:59PM 33.8422 -117.1511 261° West 390 449 12,300 -1,320 Descending Los Angeles Center
04:00PM 33.8267 -117.2656 261° West 356 410 11,100 -1,020 Descending Los Angeles Center
04:01PM 33.8136 -117.3611 261° West 299 344 10,200 -900 Descending Los Angeles Center
04:02PM 33.8003 -117.4558 260° West 288 331 9,300 -960 Descending Los Angeles Center
04:03PM 33.7864 -117.5589 261° West 264 304 8,300 -900 Descending Los Angeles Center
04:04PM 33.7742 -117.6358 259° West 242 278 7,500 -1,200 Descending Los Angeles Center
04:05PM 33.7333 -117.7167 239° Southwest 240 276 5,900 -1,440 Descending Southern California TRACON
04:06PM 33.7167 -117.7833 253° West 227 261 4,600 -960 Descending Southern California TRACON
04:07PM 33.7000 -117.8500 253° West 209 241 4,000 -600 Descending Southern California TRACON
04:08PM 33.6833 -117.9167 253° West 212 244 3,400 -1,080 Descending Southern California TRACON
04:09PM 33.6833 -117.9833 270° West 200 230 1,900 -900 Descending Southern California TRACON
04:10PM 33.7167 -118.0333 309° West 182 209 1,600 -180 Descending Southern California TRACON
04:11PM 33.7500 -118.0667 320° Northwest 171 197 1,600 -300 Level Southern California TRACON
04:12PM 33.7833 -118.1000 320° Northwest 134 154 1,000 -660 Descending Southern California TRACON
04:13PM 33.8000 -118.1333 301° West 130 150 300 -720 Descending Southern California TRACON
04:15PM 33.8167 -118.1500 292° West  Level FlightAware Approximate
04:22PM 33.8177 -118.1517 292° West  Level Estimated
04:23PM 33.8167 -118.1500 292° West  Level FlightAware Approximate